sensor_id;sensor_type;location;lat;lon;timestamp;pressure;altitude;pressure_sealevel;temperature;humidity
69836;BME280;57132;51.972;4.450;2022-12-18T00:02:21;102668.78;;;-5.08;100.00
69836;BME280;57132;51.972;4.450;2022-12-18T00:04:47;102672.09;;;-5.15;100.00
69836;BME280;57132;51.972;4.450;2022-12-18T00:07:12;102671.97;;;-5.21;100.00
69836;BME280;57132;51.972;4.450;2022-12-18T00:09:38;102668.28;;;-5.29;100.00
69836;BME280;57132;51.972;4.450;2022-12-18T00:12:03;102688.06;;;-5.36;100.00
69836;BME280;57132;51.972;4.450;2022-12-18T00:14:29;102691.53;;;-5.37;100.00
69836;BME280;57132;51.972;4.450;2022-12-18T00:16:54;102685.47;;;-5.36;100.00
69836;BME280;57132;51.972;4.450;2022-12-18T00:19:19;102683.03;;;-5.30;100.00
69836;BME280;57132;51.972;4.450;2022-12-18T00:21:45;102679.00;;;-5.15;100.00
69836;BME280;57132;51.972;4.450;2022-12-18T00:24:11;102678.34;;;-5.07;100.00
69836;BME280;57132;51.972;4.450;2022-12-18T00:26:37;102673.31;;;-4.99;100.00
69836;BME280;57132;51.972;4.450;2022-12-18T00:29:07;102682.22;;;-4.89;100.00
69836;BME280;57132;51.972;4.450;2022-12-18T00:31:32;102673.72;;;-4.82;100.00
69836;BME280;57132;51.972;4.450;2022-12-18T00:33:58;102673.72;;;-4.81;100.00
69836;BME280;57132;51.972;4.450;2022-12-18T00:36:26;102675.53;;;-4.78;100.00
69836;BME280;57132;51.972;4.450;2022-12-18T00:38:53;102673.72;;;-4.82;100.00
69836;BME280;57132;51.972;4.450;2022-12-18T00:41:19;102669.22;;;-4.88;100.00
69836;BME280;57132;51.972;4.450;2022-12-18T00:44:04;102673.38;;;-4.96;100.00
69836;BME280;57132;51.972;4.450;2022-12-18T00:46:30;102677.53;;;-5.04;100.00
69836;BME280;57132;51.972;4.450;2022-12-18T00:48:56;102677.38;;;-5.12;100.00
69836;BME280;57132;51.972;4.450;2022-12-18T00:51:21;102683.41;;;-5.14;100.00
69836;BME280;57132;51.972;4.450;2022-12-18T00:53:47;102685.06;;;-5.18;100.00
69836;BME280;57132;51.972;4.450;2022-12-18T00:56:12;102687.56;;;-5.21;100.00
69836;BME280;57132;51.972;4.450;2022-12-18T00:58:37;102690.97;;;-5.24;100.00
69836;BME280;57132;51.972;4.450;2022-12-18T01:01:06;102686.53;;;-5.28;100.00
69836;BME280;57132;51.972;4.450;2022-12-18T01:03:32;102684.78;;;-5.29;100.00
69836;BME280;57132;51.972;4.450;2022-12-18T01:05:57;102676.03;;;-5.31;100.00
69836;BME280;57132;51.972;4.450;2022-12-18T01:08:23;102682.06;;;-5.33;100.00
69836;BME280;57132;51.972;4.450;2022-12-18T01:10:48;102682.94;;;-5.33;100.00
69836;BME280;57132;51.972;4.450;2022-12-18T01:13:13;102684.63;;;-5.35;100.00
69836;BME280;57132;51.972;4.450;2022-12-18T01:15:39;102692.38;;;-5.38;100.00
69836;BME280;57132;51.972;4.450;2022-12-18T01:18:05;102693.06;;;-5.45;100.00
69836;BME280;57132;51.972;4.450;2022-12-18T01:20:31;102700.69;;;-5.53;100.00
69836;BME280;57132;51.972;4.450;2022-12-18T01:22:56;102704.13;;;-5.54;100.00
69836;BME280;57132;51.972;4.450;2022-12-18T01:25:21;102707.50;;;-5.56;100.00
69836;BME280;57132;51.972;4.450;2022-12-18T01:27:48;102701.38;;;-5.58;100.00
69836;BME280;57132;51.972;4.450;2022-12-18T01:30:13;102699.63;;;-5.59;100.00
69836;BME280;57132;51.972;4.450;2022-12-18T01:32:39;102704.84;;;-5.59;100.00
69836;BME280;57132;51.972;4.450;2022-12-18T01:35:06;102703.06;;;-5.60;100.00
69836;BME280;57132;51.972;4.450;2022-12-18T01:37:32;102709.94;;;-5.62;100.00
69836;BME280;57132;51.972;4.450;2022-12-18T01:39:57;102705.47;;;-5.68;100.00
69836;BME280;57132;51.972;4.450;2022-12-18T01:42:22;102710.56;;;-5.73;100.00
69836;BME280;57132;51.972;4.450;2022-12-18T01:47:45;102702.84;;;-5.70;100.00
69836;BME280;57132;51.972;4.450;2022-12-18T01:50:31;102718.59;;;-5.63;100.00
69836;BME280;57132;51.972;4.450;2022-12-18T01:53:07;102725.56;;;-5.62;100.00
69836;BME280;57132;51.972;4.450;2022-12-18T01:55:39;102720.44;;;-5.59;100.00
69836;BME280;57132;51.972;4.450;2022-12-18T01:58:06;102716.09;;;-5.60;100.00
69836;BME280;57132;51.972;4.450;2022-12-18T02:00:31;102717.81;;;-5.61;100.00
69836;BME280;57132;51.972;4.450;2022-12-18T02:02:57;102714.38;;;-5.60;100.00
69836;BME280;57132;51.972;4.450;2022-12-18T02:05:54;102721.19;;;-5.63;100.00
69836;BME280;57132;51.972;4.450;2022-12-18T02:08:33;102719.41;;;-5.66;100.00
69836;BME280;57132;51.972;4.450;2022-12-18T02:11:35;102718.25;;;-5.77;100.00
69836;BME280;57132;51.972;4.450;2022-12-18T02:14:20;102715.56;;;-5.80;100.00
69836;BME280;57132;51.972;4.450;2022-12-18T02:17:01;102712.84;;;-5.85;100.00
69836;BME280;57132;51.972;4.450;2022-12-18T02:19:37;102717.09;;;-5.88;100.00
69836;BME280;57132;51.972;4.450;2022-12-18T02:27:41;102709.13;;;-5.95;100.00
69836;BME280;57132;51.972;4.450;2022-12-18T02:30:10;102707.41;;;-5.94;100.00
69836;BME280;57132;51.972;4.450;2022-12-18T02:32:42;102717.00;;;-5.93;100.00
69836;BME280;57132;51.972;4.450;2022-12-18T02:35:14;102717.00;;;-5.91;100.00
69836;BME280;57132;51.972;4.450;2022-12-18T02:37:41;102714.34;;;-5.95;100.00
69836;BME280;57132;51.972;4.450;2022-12-18T02:40:09;102713.34;;;-6.00;100.00
69836;BME280;57132;51.972;4.450;2022-12-18T02:42:36;102708.00;;;-6.04;100.00
69836;BME280;57132;51.972;4.450;2022-12-18T02:45:01;102704.44;;;-6.08;100.00
69836;BME280;57132;51.972;4.450;2022-12-18T02:47:30;102688.75;;;-6.11;100.00
69836;BME280;57132;51.972;4.450;2022-12-18T02:50:07;102688.72;;;-6.12;100.00
69836;BME280;57132;51.972;4.450;2022-12-18T02:55:19;102672.31;;;-6.10;100.00
69836;BME280;57132;51.972;4.450;2022-12-18T02:58:17;102681.19;;;-6.03;100.00
69836;BME280;57132;51.972;4.450;2022-12-18T03:00:58;102675.19;;;-6.01;100.00
69836;BME280;57132;51.972;4.450;2022-12-18T03:03:43;102668.34;;;-5.97;100.00
69836;BME280;57132;51.972;4.450;2022-12-18T03:08:56;102660.84;;;-5.85;100.00
69836;BME280;57132;51.972;4.450;2022-12-18T03:11:24;102657.41;;;-5.82;100.00
69836;BME280;57132;51.972;4.450;2022-12-18T03:14:13;102645.38;;;-5.79;100.00
69836;BME280;57132;51.972;4.450;2022-12-18T03:16:41;102647.16;;;-5.78;100.00
69836;BME280;57132;51.972;4.450;2022-12-18T03:19:11;102648.81;;;-5.80;100.00
69836;BME280;57132;51.972;4.450;2022-12-18T03:21:56;102657.41;;;-5.82;100.00
69836;BME280;57132;51.972;4.450;2022-12-18T03:24:24;102655.63;;;-5.85;100.00
69836;BME280;57132;51.972;4.450;2022-12-18T03:26:54;102652.94;;;-5.89;100.00
69836;BME280;57132;51.972;4.450;2022-12-18T03:29:24;102650.28;;;-5.92;100.00
69836;BME280;57132;51.972;4.450;2022-12-18T03:31:57;102647.59;;;-5.96;100.00
69836;BME280;57132;51.972;4.450;2022-12-18T03:34:30;102641.31;;;-6.04;100.00
69836;BME280;57132;51.972;4.450;2022-12-18T03:36:57;102645.44;;;-6.12;100.00
69836;BME280;57132;51.972;4.450;2022-12-18T03:39:23;102647.84;;;-6.18;100.00
69836;BME280;57132;51.972;4.450;2022-12-18T03:42:05;102643.28;;;-6.27;100.00
69836;BME280;57132;51.972;4.450;2022-12-18T03:47:16;102647.25;;;-6.41;100.00
69836;BME280;57132;51.972;4.450;2022-12-18T03:50:10;102650.59;;;-6.45;100.00
69836;BME280;57132;51.972;4.450;2022-12-18T03:52:51;102649.66;;;-6.47;100.00
69836;BME280;57132;51.972;4.450;2022-12-18T03:55:20;102649.53;;;-6.52;100.00
69836;BME280;57132;51.972;4.450;2022-12-18T03:57:47;102652.97;;;-6.53;100.00
69836;BME280;57132;51.972;4.450;2022-12-18T04:00:15;102651.13;;;-6.57;100.00
69836;BME280;57132;51.972;4.450;2022-12-18T04:02:48;102637.94;;;-6.63;100.00
69836;BME280;57132;51.972;4.450;2022-12-18T04:05:17;102644.66;;;-6.70;100.00
69836;BME280;57132;51.972;4.450;2022-12-18T04:07:47;102648.84;;;-6.75;100.00
69836;BME280;57132;51.972;4.450;2022-12-18T04:10:14;102656.53;;;-6.78;100.00
69836;BME280;57132;51.972;4.450;2022-12-18T04:12:41;102646.09;;;-6.81;100.00
69836;BME280;57132;51.972;4.450;2022-12-18T04:15:07;102646.84;;;-6.85;100.00
69836;BME280;57132;51.972;4.450;2022-12-18T04:17:33;102653.66;;;-6.88;100.00
69836;BME280;57132;51.972;4.450;2022-12-18T04:19:58;102650.09;;;-6.92;100.00
69836;BME280;57132;51.972;4.450;2022-12-18T04:22:24;102652.69;;;-6.92;100.00
69836;BME280;57132;51.972;4.450;2022-12-18T04:24:49;102648.41;;;-6.90;100.00
69836;BME280;57132;51.972;4.450;2022-12-18T04:27:14;102656.16;;;-6.91;100.00
69836;BME280;57132;51.972;4.450;2022-12-18T04:29:40;102654.44;;;-6.91;100.00
69836;BME280;57132;51.972;4.450;2022-12-18T04:32:05;102656.25;;;-6.88;100.00
69836;BME280;57132;51.972;4.450;2022-12-18T04:34:31;102649.34;;;-6.88;100.00
69836;BME280;57132;51.972;4.450;2022-12-18T04:36:57;102657.16;;;-6.86;100.00
69836;BME280;57132;51.972;4.450;2022-12-18T04:39:22;102651.94;;;-6.88;100.00
69836;BME280;57132;51.972;4.450;2022-12-18T04:41:47;102661.28;;;-6.93;100.00
69836;BME280;57132;51.972;4.450;2022-12-18T04:44:13;102663.75;;;-6.98;100.00
69836;BME280;57132;51.972;4.450;2022-12-18T04:46:39;102659.28;;;-7.02;100.00
69836;BME280;57132;51.972;4.450;2022-12-18T04:49:05;102657.44;;;-7.06;100.00
69836;BME280;57132;51.972;4.450;2022-12-18T04:51:30;102657.34;;;-7.09;100.00
69836;BME280;57132;51.972;4.450;2022-12-18T04:53:56;102650.34;;;-7.11;100.00
69836;BME280;57132;51.972;4.450;2022-12-18T04:56:22;102653.00;;;-7.10;100.00
69836;BME280;57132;51.972;4.450;2022-12-18T04:58:47;102654.66;;;-7.12;100.00
69836;BME280;57132;51.972;4.450;2022-12-18T05:01:14;102650.34;;;-7.11;100.00
69836;BME280;57132;51.972;4.450;2022-12-18T05:03:40;102652.88;;;-7.13;100.00
69836;BME280;57132;51.972;4.450;2022-12-18T05:06:06;102647.56;;;-7.18;100.00
69836;BME280;57132;51.972;4.450;2022-12-18T05:08:32;102656.22;;;-7.17;100.00
69836;BME280;57132;51.972;4.450;2022-12-18T05:11:07;102655.34;;;-7.18;100.00
69836;BME280;57132;51.972;4.450;2022-12-18T05:13:33;102650.06;;;-7.21;100.00
69836;BME280;57132;51.972;4.450;2022-12-18T05:15:59;102645.78;;;-7.20;100.00
69836;BME280;57132;51.972;4.450;2022-12-18T05:18:25;102641.34;;;-7.23;100.00
69836;BME280;57132;51.972;4.450;2022-12-18T05:20:52;102638.66;;;-7.26;100.00
69836;BME280;57132;51.972;4.450;2022-12-18T05:23:18;102640.38;;;-7.26;100.00
69836;BME280;57132;51.972;4.450;2022-12-18T05:25:51;102642.13;;;-7.25;100.00
69836;BME280;57132;51.972;4.450;2022-12-18T05:28:17;102638.66;;;-7.26;100.00
69836;BME280;57132;51.972;4.450;2022-12-18T05:30:47;102636.06;;;-7.26;100.00
69836;BME280;57132;51.972;4.450;2022-12-18T05:33:13;102630.88;;;-7.26;100.00
69836;BME280;57132;51.972;4.450;2022-12-18T05:35:38;102637.75;;;-7.28;100.00
69836;BME280;57132;51.972;4.450;2022-12-18T05:38:03;102639.28;;;-7.33;100.00
69836;BME280;57132;51.972;4.450;2022-12-18T05:40:29;102634.84;;;-7.37;100.00
69836;BME280;57132;51.972;4.450;2022-12-18T05:42:54;102627.91;;;-7.38;100.00
69836;BME280;57132;51.972;4.450;2022-12-18T05:45:19;102636.56;;;-7.37;100.00
69836;BME280;57132;51.972;4.450;2022-12-18T05:47:45;102628.75;;;-7.39;100.00
69836;BME280;57132;51.972;4.450;2022-12-18T05:50:10;102626.88;;;-7.43;100.00
69836;BME280;57132;51.972;4.450;2022-12-18T05:52:36;102626.03;;;-7.42;100.00
69836;BME280;57132;51.972;4.450;2022-12-18T05:55:02;102627.81;;;-7.41;100.00
69836;BME280;57132;51.972;4.450;2022-12-18T05:57:28;102631.22;;;-7.42;100.00
69836;BME280;57132;51.972;4.450;2022-12-18T05:59:53;102635.50;;;-7.44;100.00
69836;BME280;57132;51.972;4.450;2022-12-18T06:02:19;102634.53;;;-7.48;100.00
69836;BME280;57132;51.972;4.450;2022-12-18T06:04:46;102639.53;;;-7.52;100.00
69836;BME280;57132;51.972;4.450;2022-12-18T06:07:11;102624.72;;;-7.56;100.00
69836;BME280;57132;51.972;4.450;2022-12-18T06:09:36;102621.97;;;-7.61;100.00
69836;BME280;57132;51.972;4.450;2022-12-18T06:12:02;102614.16;;;-7.62;100.00
69836;BME280;57132;51.972;4.450;2022-12-18T06:14:27;102608.94;;;-7.64;100.00
69836;BME280;57132;51.972;4.450;2022-12-18T06:16:53;102597.75;;;-7.61;100.00
69836;BME280;57132;51.972;4.450;2022-12-18T06:19:18;102595.16;;;-7.61;100.00
69836;BME280;57132;51.972;4.450;2022-12-18T06:21:44;102594.19;;;-7.65;100.00
69836;BME280;57132;51.972;4.450;2022-12-18T06:24:09;102593.31;;;-7.65;100.00
69836;BME280;57132;51.972;4.450;2022-12-18T06:26:38;102595.88;;;-7.67;100.00
69836;BME280;57132;51.972;4.450;2022-12-18T06:29:04;102594.19;;;-7.65;100.00
69836;BME280;57132;51.972;4.450;2022-12-18T06:31:29;102595.13;;;-7.63;100.00
69836;BME280;57132;51.972;4.450;2022-12-18T06:33:55;102588.38;;;-7.58;100.00
69836;BME280;57132;51.972;4.450;2022-12-18T06:36:20;102585.81;;;-7.56;100.00
69836;BME280;57132;51.972;4.450;2022-12-18T06:38:46;102580.59;;;-7.58;100.00
69836;BME280;57132;51.972;4.450;2022-12-18T06:41:14;102581.38;;;-7.60;100.00
69836;BME280;57132;51.972;4.450;2022-12-18T06:43:40;102576.13;;;-7.63;100.00
69836;BME280;57132;51.972;4.450;2022-12-18T06:46:07;102574.25;;;-7.68;100.00
69836;BME280;57132;51.972;4.450;2022-12-18T06:48:32;102566.38;;;-7.71;100.00
69836;BME280;57132;51.972;4.450;2022-12-18T06:50:58;102559.44;;;-7.72;100.00
69836;BME280;57132;51.972;4.450;2022-12-18T06:53:23;102558.53;;;-7.72;100.00
69836;BME280;57132;51.972;4.450;2022-12-18T06:55:49;102560.34;;;-7.70;100.00
69836;BME280;57132;51.972;4.450;2022-12-18T06:58:14;102558.69;;;-7.68;100.00
69836;BME280;57132;51.972;4.450;2022-12-18T07:00:41;102554.50;;;-7.64;100.00
69836;BME280;57132;51.972;4.450;2022-12-18T07:03:07;102549.44;;;-7.59;100.00
69836;BME280;57132;51.972;4.450;2022-12-18T07:05:32;102546.03;;;-7.57;100.00
69836;BME280;57132;51.972;4.450;2022-12-18T07:07:58;102540.13;;;-7.53;100.00
69836;BME280;57132;51.972;4.450;2022-12-18T07:10:23;102538.56;;;-7.48;100.00
69836;BME280;57132;51.972;4.450;2022-12-18T07:12:48;102532.56;;;-7.45;100.00
69836;BME280;57132;51.972;4.450;2022-12-18T07:15:14;102524.91;;;-7.42;100.00
69836;BME280;57132;51.972;4.450;2022-12-18T07:17:39;102507.75;;;-7.37;100.00
69836;BME280;57132;51.972;4.450;2022-12-18T07:20:05;102502.66;;;-7.34;100.00
69836;BME280;57132;51.972;4.450;2022-12-18T07:22:31;102492.38;;;-7.31;100.00
69836;BME280;57132;51.972;4.450;2022-12-18T07:24:56;102482.91;;;-7.29;100.00
69836;BME280;57132;51.972;4.450;2022-12-18T07:27:22;102484.75;;;-7.25;100.00
69836;BME280;57132;51.972;4.450;2022-12-18T07:29:47;102478.81;;;-7.21;100.00
69836;BME280;57132;51.972;4.450;2022-12-18T07:32:13;102484.09;;;-7.18;100.00
69836;BME280;57132;51.972;4.450;2022-12-18T07:34:38;102477.16;;;-7.19;100.00
69836;BME280;57132;51.972;4.450;2022-12-18T07:37:04;102489.34;;;-7.16;100.00
69836;BME280;57132;51.972;4.450;2022-12-18T07:39:29;102492.84;;;-7.14;100.00
69836;BME280;57132;51.972;4.450;2022-12-18T07:41:56;102488.66;;;-7.09;100.00
69836;BME280;57132;51.972;4.450;2022-12-18T07:44:39;102490.66;;;-7.00;100.00
69836;BME280;57132;51.972;4.450;2022-12-18T07:47:05;102497.75;;;-6.93;100.00
69836;BME280;57132;51.972;4.450;2022-12-18T07:49:30;102500.53;;;-6.87;100.00
69836;BME280;57132;51.972;4.450;2022-12-18T07:51:56;102496.44;;;-6.79;100.00
69836;BME280;57132;51.972;4.450;2022-12-18T07:54:22;102491.31;;;-6.76;100.00
69836;BME280;57132;51.972;4.450;2022-12-18T07:56:48;102475.78;;;-6.74;100.00
69836;BME280;57132;51.972;4.450;2022-12-18T07:59:13;102481.94;;;-6.71;100.00
69836;BME280;57132;51.972;4.450;2022-12-18T08:01:39;102474.19;;;-6.69;100.00
69836;BME280;57132;51.972;4.450;2022-12-18T08:04:04;102470.88;;;-6.63;100.00
69836;BME280;57132;51.972;4.450;2022-12-18T08:06:29;102476.19;;;-6.59;100.00
69836;BME280;57132;51.972;4.450;2022-12-18T08:08:56;102475.34;;;-6.58;100.00
69836;BME280;57132;51.972;4.450;2022-12-18T08:11:22;102474.53;;;-6.55;100.00
69836;BME280;57132;51.972;4.450;2022-12-18T08:13:48;102484.09;;;-6.54;100.00
69836;BME280;57132;51.972;4.450;2022-12-18T08:16:13;102475.53;;;-6.50;100.00
69836;BME280;57132;51.972;4.450;2022-12-18T08:18:39;102463.41;;;-6.50;100.00
69836;BME280;57132;51.972;4.450;2022-12-18T08:21:15;102470.53;;;-6.43;100.00
69836;BME280;57132;51.972;4.450;2022-12-18T08:23:41;102467.22;;;-6.37;100.00
69836;BME280;57132;51.972;4.450;2022-12-18T08:26:07;102468.97;;;-6.36;100.00
69836;BME280;57132;51.972;4.450;2022-12-18T08:28:33;102463.88;;;-6.33;100.00
69836;BME280;57132;51.972;4.450;2022-12-18T08:30:59;102470.94;;;-6.26;100.00
69836;BME280;57132;51.972;4.450;2022-12-18T08:33:24;102480.53;;;-6.25;100.00
69836;BME280;57132;51.972;4.450;2022-12-18T08:35:49;102481.50;;;-6.20;100.00
69836;BME280;57132;51.972;4.450;2022-12-18T08:38:15;102480.72;;;-6.17;100.00
69836;BME280;57132;51.972;4.450;2022-12-18T08:40:40;102489.47;;;-6.13;100.00
69836;BME280;57132;51.972;4.450;2022-12-18T08:43:08;102492.19;;;-6.07;100.00
69836;BME280;57132;51.972;4.450;2022-12-18T08:45:53;102498.31;;;-6.05;100.00
69836;BME280;57132;51.972;4.450;2022-12-18T08:48:18;102500.97;;;-6.02;100.00
69836;BME280;57132;51.972;4.450;2022-12-18T08:50:53;102526.19;;;-5.98;100.00
69836;BME280;57132;51.972;4.450;2022-12-18T08:53:19;102534.16;;;-5.92;100.00
69836;BME280;57132;51.972;4.450;2022-12-18T08:55:44;102529.88;;;-5.88;100.00
69836;BME280;57132;51.972;4.450;2022-12-18T08:58:09;102530.84;;;-5.85;100.00
69836;BME280;57132;51.972;4.450;2022-12-18T09:00:35;102528.34;;;-5.80;100.00
69836;BME280;57132;51.972;4.450;2022-12-18T09:03:00;102519.75;;;-5.76;100.00
69836;BME280;57132;51.972;4.450;2022-12-18T09:05:27;102513.78;;;-5.72;100.00
69836;BME280;57132;51.972;4.450;2022-12-18T09:07:52;102508.59;;;-5.71;100.00
69836;BME280;57132;51.972;4.450;2022-12-18T09:10:17;102507.03;;;-5.64;100.00
69836;BME280;57132;51.972;4.450;2022-12-18T09:12:43;102493.19;;;-5.63;100.00
69836;BME280;57132;51.972;4.450;2022-12-18T09:15:08;102483.78;;;-5.58;100.00
69836;BME280;57132;51.972;4.450;2022-12-18T09:17:34;102476.09;;;-5.52;100.00
69836;BME280;57132;51.972;4.450;2022-12-18T09:19:59;102454.50;;;-5.48;100.00
69836;BME280;57132;51.972;4.450;2022-12-18T09:22:25;102449.34;;;-5.46;100.00
69836;BME280;57132;51.972;4.450;2022-12-18T09:24:50;102462.47;;;-5.40;100.00
69836;BME280;57132;51.972;4.450;2022-12-18T09:27:15;102466.88;;;-5.36;100.00
69836;BME280;57132;51.972;4.450;2022-12-18T09:29:40;102460.91;;;-5.32;100.00
69836;BME280;57132;51.972;4.450;2022-12-18T09:32:06;102459.25;;;-5.27;100.00
69836;BME280;57132;51.972;4.450;2022-12-18T09:34:31;102454.16;;;-5.22;100.00
69836;BME280;57132;51.972;4.450;2022-12-18T09:36:57;102459.41;;;-5.19;100.00
69836;BME280;57132;51.972;4.450;2022-12-18T09:39:22;102477.63;;;-5.19;100.00
69836;BME280;57132;51.972;4.450;2022-12-18T09:41:51;102466.47;;;-5.13;100.00
69836;BME280;57132;51.972;4.450;2022-12-18T09:44:32;102473.50;;;-5.09;100.00
69836;BME280;57132;51.972;4.450;2022-12-18T09:47:12;102478.78;;;-5.06;100.00
69836;BME280;57132;51.972;4.450;2022-12-18T09:49:44;102493.53;;;-5.05;100.00
69836;BME280;57132;51.972;4.450;2022-12-18T09:54:46;102475.41;;;-4.99;100.00
69836;BME280;57132;51.972;4.450;2022-12-18T09:57:20;102474.63;;;-4.95;100.00
69836;BME280;57132;51.972;4.450;2022-12-18T09:59:53;102471.19;;;-4.94;100.00
69836;BME280;57132;51.972;4.450;2022-12-18T10:02:22;102464.34;;;-4.90;100.00
69836;BME280;57132;51.972;4.450;2022-12-18T10:05:06;102459.16;;;-4.87;100.00
69836;BME280;57132;51.972;4.450;2022-12-18T10:07:59;102454.94;;;-4.81;100.00
69836;BME280;57132;51.972;4.450;2022-12-18T10:10:50;102454.28;;;-4.71;100.00
69836;BME280;57132;51.972;4.450;2022-12-18T10:13:42;102442.19;;;-4.67;100.00
69836;BME280;57132;51.972;4.450;2022-12-18T10:16:19;102421.34;;;-4.67;100.00
69836;BME280;57132;51.972;4.450;2022-12-18T10:18:54;102425.72;;;-4.64;100.00
69836;BME280;57132;51.972;4.450;2022-12-18T10:21:34;102417.09;;;-4.60;100.00
69836;BME280;57132;51.972;4.450;2022-12-18T10:24:26;102424.16;;;-4.53;100.00
69836;BME280;57132;51.972;4.450;2022-12-18T10:27:04;102416.47;;;-4.47;100.00
69836;BME280;57132;51.972;4.450;2022-12-18T10:29:34;102421.75;;;-4.42;100.00
69836;BME280;57132;51.972;4.450;2022-12-18T10:32:00;102413.94;;;-4.41;100.00
69836;BME280;57132;51.972;4.450;2022-12-18T10:34:25;102424.44;;;-4.38;100.00
69836;BME280;57132;51.972;4.450;2022-12-18T10:36:51;102425.34;;;-4.34;100.00
69836;BME280;57132;51.972;4.450;2022-12-18T10:39:20;102419.41;;;-4.26;100.00
69836;BME280;57132;51.972;4.450;2022-12-18T10:41:47;102413.44;;;-4.17;100.00
69836;BME280;57132;51.972;4.450;2022-12-18T10:44:27;102407.41;;;-4.14;100.00
69836;BME280;57132;51.972;4.450;2022-12-18T10:46:54;102414.44;;;-4.09;100.00
69836;BME280;57132;51.972;4.450;2022-12-18T10:49:28;102414.50;;;-4.06;100.00
69836;BME280;57132;51.972;4.450;2022-12-18T10:54:32;102404.19;;;-3.98;100.00
69836;BME280;57132;51.972;4.450;2022-12-18T10:57:38;102404.28;;;-3.90;100.00
69836;BME280;57132;51.972;4.450;2022-12-18T11:00:26;102409.63;;;-3.83;100.00
69836;BME280;57132;51.972;4.450;2022-12-18T11:02:53;102417.44;;;-3.81;100.00
69836;BME280;57132;51.972;4.450;2022-12-18T11:07:52;102401.84;;;-3.78;100.00
69836;BME280;57132;51.972;4.450;2022-12-18T11:10:21;102395.81;;;-3.74;100.00
69836;BME280;57132;51.972;4.450;2022-12-18T11:12:47;102397.59;;;-3.68;100.00
69836;BME280;57132;51.972;4.450;2022-12-18T11:15:33;102395.09;;;-3.62;100.00
69836;BME280;57132;51.972;4.450;2022-12-18T11:17:59;102402.09;;;-3.58;100.00
69836;BME280;57132;51.972;4.450;2022-12-18T11:20:33;102410.84;;;-3.55;100.00
69836;BME280;57132;51.972;4.450;2022-12-18T11:23:11;102390.03;;;-3.49;100.00
69836;BME280;57132;51.972;4.450;2022-12-18T11:25:38;102387.47;;;-3.46;100.00
69836;BME280;57132;51.972;4.450;2022-12-18T11:33:42;102377.97;;;-3.40;100.00
69836;BME280;57132;51.972;4.450;2022-12-18T11:36:10;102376.22;;;-3.38;100.00
69836;BME280;57132;51.972;4.450;2022-12-18T11:38:40;102377.06;;;-3.41;100.00
69836;BME280;57132;51.972;4.450;2022-12-18T11:43:55;102351.03;;;-3.36;100.00
69836;BME280;57132;51.972;4.450;2022-12-18T11:46:30;102344.94;;;-3.35;100.00
69836;BME280;57132;51.972;4.450;2022-12-18T11:51:38;102314.50;;;-3.35;100.00
69836;BME280;57132;51.972;4.450;2022-12-18T11:54:12;102311.06;;;-3.31;100.00
69836;BME280;57132;51.972;4.450;2022-12-18T11:56:51;102302.31;;;-3.33;100.00
69836;BME280;57132;51.972;4.450;2022-12-18T11:59:28;102306.66;;;-3.33;100.00
69836;BME280;57132;51.972;4.450;2022-12-18T12:08:02;102301.53;;;-3.26;100.00
69836;BME280;57132;51.972;4.450;2022-12-18T12:13:35;102291.94;;;-3.27;100.00
69836;BME280;57132;51.972;4.450;2022-12-18T12:21:41;102280.66;;;-3.21;100.00
69836;BME280;57132;51.972;4.450;2022-12-18T12:32:15;102273.78;;;-3.13;100.00
69836;BME280;57132;51.972;4.450;2022-12-18T12:40:04;102268.59;;;-3.10;100.00
69836;BME280;57132;51.972;4.450;2022-12-18T12:42:34;102268.63;;;-3.07;100.00
69836;BME280;57132;51.972;4.450;2022-12-18T12:45:28;102265.16;;;-3.04;100.00
69836;BME280;57132;51.972;4.450;2022-12-18T12:47:57;102271.28;;;-2.99;100.00
69836;BME280;57132;51.972;4.450;2022-12-18T12:50:24;102263.47;;;-2.98;100.00
69836;BME280;57132;51.972;4.450;2022-12-18T12:52:52;102265.22;;;-2.95;100.00
69836;BME280;57132;51.972;4.450;2022-12-18T12:55:25;102254.78;;;-2.97;100.00
69836;BME280;57132;51.972;4.450;2022-12-18T13:00:18;102244.41;;;-2.89;100.00
69836;BME280;57132;51.972;4.450;2022-12-18T13:08:27;102228.78;;;-2.80;100.00
69836;BME280;57132;51.972;4.450;2022-12-18T13:10:54;102227.91;;;-2.79;100.00
69836;BME280;57132;51.972;4.450;2022-12-18T13:14:10;102222.69;;;-2.77;100.00
69836;BME280;57132;51.972;4.450;2022-12-18T13:16:44;102220.06;;;-2.79;100.00
69836;BME280;57132;51.972;4.450;2022-12-18T13:19:23;102219.22;;;-2.75;100.00
69836;BME280;57132;51.972;4.450;2022-12-18T13:21:54;102222.72;;;-2.73;100.00
69836;BME280;57132;51.972;4.450;2022-12-18T13:24:26;102213.16;;;-2.72;100.00
69836;BME280;57132;51.972;4.450;2022-12-18T13:26:52;102206.19;;;-2.72;100.00
69836;BME280;57132;51.972;4.450;2022-12-18T13:29:41;102197.47;;;-2.70;100.00
69836;BME280;57132;51.972;4.450;2022-12-18T13:32:19;102186.16;;;-2.66;100.00
69836;BME280;57132;51.972;4.450;2022-12-18T13:34:45;102184.44;;;-2.63;100.00
69836;BME280;57132;51.972;4.450;2022-12-18T13:39:58;102174.03;;;-2.55;100.00
69836;BME280;57132;51.972;4.450;2022-12-18T13:45:35;102173.16;;;-2.53;100.00
69836;BME280;57132;51.972;4.450;2022-12-18T13:48:00;102178.41;;;-2.53;100.00
69836;BME280;57132;51.972;4.450;2022-12-18T13:50:26;102176.66;;;-2.48;100.00
69836;BME280;57132;51.972;4.450;2022-12-18T13:52:52;102171.47;;;-2.41;100.00
69836;BME280;57132;51.972;4.450;2022-12-18T13:55:19;102160.13;;;-2.43;100.00
69836;BME280;57132;51.972;4.450;2022-12-18T13:57:45;102160.13;;;-2.45;100.00
69836;BME280;57132;51.972;4.450;2022-12-18T14:00:41;102150.56;;;-2.40;100.00
69836;BME280;57132;51.972;4.450;2022-12-18T14:03:19;102144.47;;;-2.36;100.00
69836;BME280;57132;51.972;4.450;2022-12-18T14:05:45;102147.97;;;-2.37;100.00
69836;BME280;57132;51.972;4.450;2022-12-18T14:08:14;102140.97;;;-2.35;100.00
69836;BME280;57132;51.972;4.450;2022-12-18T14:10:41;102145.34;;;-2.34;100.00